Impacts METAR Board
IDs:

KCLT - Charlotte/Douglas In, NC, US

Updated at: 1700 UTC 24 Sep 2018
Potential Impact None Slight Moderate High
Time 24/05Z 24/06Z 24/07Z 24/08Z 24/09Z 24/10Z 24/11Z 24/12Z 24/13Z 24/14Z 24/15Z 24/16Z 24/17Z
Temp71 70 70 69 67 68 67 67 67 68 70 71 72
Dewpt68 68 68 67 67 66 66 66 65 65 66 66 67
Altim30.17 30.17 30.18 30.18 30.18 30.19 30.20 30.22 30.24 30.25 30.26 30.25 30.26
VIS7 6 6 5 3 5 5 3 5 6 7 7 7
CIG10 8 7 6 5 5 5 5 4 6 6 6 9
CoverOVCOVCOVCOVCOVCOVCOVCOVCOVCOVCOVCOVCOVC
FltCatMVFRIFRIFRIFRIFRIFRIFRIFRLIFRIFRIFRIFRIFR
WX--BRBRBRBRBRBRBRBRBR------
WDir50304050305050504040604060
WSpd9 7 5 6 6 7 6 7 10 8 6 8 8
WGst-- -- -- -- -- -- -- -- -- -- -- 16 --
Raw hourly METARs
KCLT 240452Z 05009KT 7SM OVC010 22/20 A3017 RMK AO2 SLP207 T02170200 403060200
KCLT 240552Z 03007KT 6SM BR OVC008 21/20 A3017 RMK AO2 SLP209 T02110200 10256 20211 51009
KCLT 240652Z 04005KT 6SM BR OVC007 21/20 A3018 RMK AO2 SLP209 T02110200
KCLT 240752Z 05006KT 5SM BR OVC006 21/19 A3018 RMK AO2 SLP210 T02060194
KCLT 240902Z 03006KT 3SM BR OVC005 19/19 A3018 RMK AO2 T01940194
KCLT 240952Z 05007KT 5SM BR OVC005 20/19 A3019 RMK AO2 SLP214 T02000189
KCLT 241052Z 05006KT 5SM BR OVC005 19/19 A3020 RMK AO2 SLP220 T01940189
KCLT 241201Z 05007KT 350V100 3SM BR OVC005 19/19 A3022 RMK AO2 T01940189
KCLT 241252Z 04010KT 5SM BR BKN004 OVC007 19/18 A3024 RMK AO2 SLP232 T01940183
KCLT 241352Z 04008KT 6SM BR OVC006 20/18 A3025 RMK AO2 SLP238 T02000183
KCLT 241452Z 06006KT 7SM BKN006 OVC009 21/19 A3026 RMK AO2 SLP240 T02110189 51014
KCLT 241552Z 04008G16KT 7SM BKN006 OVC009 22/19 A3025 RMK AO2 SLP238 T02170189
KCLT 241652Z 06008KT 7SM BKN009 OVC012 22/19 A3026 RMK AO2 SLP239 T02220194



Page loaded:  17:36 UTC  |   10:36 AM Pacific  |   11:36 AM Mountain  |   12:36 PM Central  |   01:36 PM Eastern

 

ADVISORIES

FORECASTS

FORECASTS

OBSERVATIONS

USER TOOLS

ABOUT US